sensor_id;sensor_type;location;lat;lon;timestamp;pressure;altitude;pressure_sealevel;temperature;humidity
35489;BME280;21602;55.670;37.578;2023-08-21T00:00:12;99288.06;;;17.31;84.63
35489;BME280;21602;55.670;37.578;2023-08-21T00:02:39;99280.53;;;17.23;84.04
35489;BME280;21602;55.670;37.578;2023-08-21T00:05:05;99285.41;;;17.21;84.31
35489;BME280;21602;55.670;37.578;2023-08-21T00:07:31;99284.06;;;17.18;84.65
35489;BME280;21602;55.670;37.578;2023-08-21T00:09:57;99281.94;;;17.15;84.88
35489;BME280;21602;55.670;37.578;2023-08-21T00:12:23;99275.97;;;17.18;85.62
35489;BME280;21602;55.670;37.578;2023-08-21T00:14:49;99282.69;;;17.26;85.07
35489;BME280;21602;55.670;37.578;2023-08-21T00:17:15;99276.72;;;17.34;84.28
35489;BME280;21602;55.670;37.578;2023-08-21T00:19:40;99285.03;;;17.37;84.00
35489;BME280;21602;55.670;37.578;2023-08-21T00:22:06;99288.34;;;17.29;83.49
35489;BME280;21602;55.670;37.578;2023-08-21T00:24:32;99293.75;;;17.24;83.50
35489;BME280;21602;55.670;37.578;2023-08-21T00:26:58;99293.00;;;17.13;83.09
35489;BME280;21602;55.670;37.578;2023-08-21T00:29:24;99287.44;;;17.00;83.33
35489;BME280;21602;55.670;37.578;2023-08-21T00:31:50;99298.19;;;16.95;83.55
35489;BME280;21602;55.670;37.578;2023-08-21T00:34:17;99300.94;;;16.84;83.46
35489;BME280;21602;55.670;37.578;2023-08-21T00:36:43;99305.28;;;16.70;83.87
35489;BME280;21602;55.670;37.578;2023-08-21T00:39:08;99303.97;;;16.62;83.70
35489;BME280;21602;55.670;37.578;2023-08-21T00:41:34;99303.97;;;16.62;83.66
35489;BME280;21602;55.670;37.578;2023-08-21T00:44:00;99299.19;;;16.39;83.42
35489;BME280;21602;55.670;37.578;2023-08-21T00:46:26;99299.44;;;16.27;83.67
35489;BME280;21602;55.670;37.578;2023-08-21T00:48:52;99301.91;;;16.13;84.06
35489;BME280;21602;55.670;37.578;2023-08-21T00:51:19;99308.34;;;16.18;84.54
35489;BME280;21602;55.670;37.578;2023-08-21T00:53:45;99299.47;;;16.17;84.66
35489;BME280;21602;55.670;37.578;2023-08-21T00:56:13;99301.09;;;16.13;84.96
35489;BME280;21602;55.670;37.578;2023-08-21T00:58:39;99303.53;;;16.20;84.74
35489;BME280;21602;55.670;37.578;2023-08-21T01:01:05;99300.53;;;16.26;85.05
35489;BME280;21602;55.670;37.578;2023-08-21T01:03:31;99299.44;;;16.37;85.23
35489;BME280;21602;55.670;37.578;2023-08-21T01:05:57;99295.41;;;16.40;84.90
35489;BME280;21602;55.670;37.578;2023-08-21T01:09:00;99295.66;;;16.44;85.95
35489;BME280;21602;55.670;37.578;2023-08-21T01:11:53;99297.53;;;16.48;85.29
35489;BME280;21602;55.670;37.578;2023-08-21T01:15:03;99301.06;;;16.44;84.95
35489;BME280;21602;55.670;37.578;2023-08-21T01:17:34;99303.78;;;16.33;85.90
35489;BME280;21602;55.670;37.578;2023-08-21T01:20:02;99302.69;;;16.34;86.03
35489;BME280;21602;55.670;37.578;2023-08-21T01:22:38;99304.31;;;16.25;85.63
35489;BME280;21602;55.670;37.578;2023-08-21T01:25:06;99298.41;;;16.08;85.29
35489;BME280;21602;55.670;37.578;2023-08-21T01:27:34;99310.78;;;15.88;85.79
35489;BME280;21602;55.670;37.578;2023-08-21T01:30:01;99305.13;;;15.75;85.67
35489;BME280;21602;55.670;37.578;2023-08-21T01:35:07;99299.75;;;15.75;87.56
35489;BME280;21602;55.670;37.578;2023-08-21T01:37:34;99308.09;;;15.78;86.54
35489;BME280;21602;55.670;37.578;2023-08-21T01:40:00;99319.41;;;15.80;86.40
35489;BME280;21602;55.670;37.578;2023-08-21T01:42:26;99307.81;;;15.80;86.48
35489;BME280;21602;55.670;37.578;2023-08-21T01:44:52;99306.22;;;15.79;86.52
35489;BME280;21602;55.670;37.578;2023-08-21T01:47:18;99310.00;;;15.78;86.95
35489;BME280;21602;55.670;37.578;2023-08-21T01:49:43;99305.41;;;15.68;86.89
35489;BME280;21602;55.670;37.578;2023-08-21T01:52:10;99299.47;;;15.66;87.57
35489;BME280;21602;55.670;37.578;2023-08-21T01:54:36;99301.34;;;15.66;87.53
35489;BME280;21602;55.670;37.578;2023-08-21T01:57:02;99304.31;;;15.69;87.44
35489;BME280;21602;55.670;37.578;2023-08-21T01:59:28;99295.94;;;15.60;87.29
35489;BME280;21602;55.670;37.578;2023-08-21T02:01:54;99292.44;;;15.60;87.81
35489;BME280;21602;55.670;37.578;2023-08-21T02:04:20;99298.94;;;15.64;87.80
35489;BME280;21602;55.670;37.578;2023-08-21T02:06:45;99300.03;;;15.68;88.25
35489;BME280;21602;55.670;37.578;2023-08-21T02:09:11;99302.41;;;15.59;87.32
35489;BME280;21602;55.670;37.578;2023-08-21T02:11:37;99298.09;;;15.58;87.76
35489;BME280;21602;55.670;37.578;2023-08-21T02:14:03;99306.41;;;15.47;88.32
35489;BME280;21602;55.670;37.578;2023-08-21T02:16:30;99306.16;;;15.43;88.31
35489;BME280;21602;55.670;37.578;2023-08-21T02:18:55;99310.19;;;15.41;88.28
35489;BME280;21602;55.670;37.578;2023-08-21T02:21:22;99315.03;;;15.44;88.35
35489;BME280;21602;55.670;37.578;2023-08-21T02:23:48;99306.97;;;15.44;88.22
35489;BME280;21602;55.670;37.578;2023-08-21T02:26:14;99313.41;;;15.43;88.35
35489;BME280;21602;55.670;37.578;2023-08-21T02:28:39;99311.78;;;15.42;88.47
35489;BME280;21602;55.670;37.578;2023-08-21T02:31:09;99318.25;;;15.41;87.89
35489;BME280;21602;55.670;37.578;2023-08-21T02:33:37;99318.22;;;15.25;87.83
35489;BME280;21602;55.670;37.578;2023-08-21T02:36:03;99323.59;;;15.25;87.77
35489;BME280;21602;55.670;37.578;2023-08-21T02:38:30;99314.44;;;15.26;87.67
35489;BME280;21602;55.670;37.578;2023-08-21T02:40:57;99315.00;;;15.33;88.43
35489;BME280;21602;55.670;37.578;2023-08-21T02:43:22;99315.28;;;15.37;87.93
35489;BME280;21602;55.670;37.578;2023-08-21T02:45:48;99301.81;;;15.32;88.15
35489;BME280;21602;55.670;37.578;2023-08-21T02:48:15;99308.00;;;15.37;87.98
35489;BME280;21602;55.670;37.578;2023-08-21T02:50:50;99306.97;;;15.39;87.09
35489;BME280;21602;55.670;37.578;2023-08-21T02:53:16;99296.44;;;15.32;87.31
35489;BME280;21602;55.670;37.578;2023-08-21T02:55:42;99299.38;;;15.25;88.08
35489;BME280;21602;55.670;37.578;2023-08-21T02:58:07;99307.19;;;15.32;88.24
35489;BME280;21602;55.670;37.578;2023-08-21T03:00:35;99312.88;;;15.41;87.83
35489;BME280;21602;55.670;37.578;2023-08-21T03:03:00;99309.38;;;15.50;87.90
35489;BME280;21602;55.670;37.578;2023-08-21T03:05:26;99310.75;;;15.63;88.25
35489;BME280;21602;55.670;37.578;2023-08-21T03:07:52;99308.63;;;15.75;87.55
35489;BME280;21602;55.670;37.578;2023-08-21T03:10:18;99314.84;;;15.81;86.88
35489;BME280;21602;55.670;37.578;2023-08-21T03:12:44;99317.25;;;15.82;86.74
35489;BME280;21602;55.670;37.578;2023-08-21T03:15:10;99318.88;;;15.83;86.53
35489;BME280;21602;55.670;37.578;2023-08-21T03:17:36;99317.53;;;15.86;86.62
35489;BME280;21602;55.670;37.578;2023-08-21T03:20:02;99328.03;;;15.87;86.66
35489;BME280;21602;55.670;37.578;2023-08-21T03:22:31;99332.34;;;15.88;86.20
35489;BME280;21602;55.670;37.578;2023-08-21T03:24:57;99327.22;;;15.87;86.57
35489;BME280;21602;55.670;37.578;2023-08-21T03:27:24;99330.19;;;15.91;86.37
35489;BME280;21602;55.670;37.578;2023-08-21T03:29:59;99321.84;;;15.97;86.49
35489;BME280;21602;55.670;37.578;2023-08-21T03:32:26;99325.63;;;16.01;86.10
35489;BME280;21602;55.670;37.578;2023-08-21T03:34:52;99323.72;;;16.02;86.11
35489;BME280;21602;55.670;37.578;2023-08-21T03:37:20;99323.72;;;16.07;86.18
35489;BME280;21602;55.670;37.578;2023-08-21T03:39:46;99330.72;;;16.08;85.22
35489;BME280;21602;55.670;37.578;2023-08-21T03:42:12;99323.44;;;16.08;85.59
35489;BME280;21602;55.670;37.578;2023-08-21T03:44:39;99326.41;;;16.12;85.05
35489;BME280;21602;55.670;37.578;2023-08-21T03:47:06;99331.78;;;16.12;85.04
35489;BME280;21602;55.670;37.578;2023-08-21T03:49:37;99332.06;;;16.16;85.00
35489;BME280;21602;55.670;37.578;2023-08-21T03:52:03;99331.28;;;16.15;84.57
35489;BME280;21602;55.670;37.578;2023-08-21T03:54:29;99334.75;;;16.16;84.32
35489;BME280;21602;55.670;37.578;2023-08-21T03:56:54;99335.84;;;16.25;84.90
35489;BME280;21602;55.670;37.578;2023-08-21T03:59:22;99337.44;;;16.31;84.62
35489;BME280;21602;55.670;37.578;2023-08-21T04:01:49;99343.63;;;16.31;84.12
35489;BME280;21602;55.670;37.578;2023-08-21T04:04:15;99338.50;;;16.35;84.15
35489;BME280;21602;55.670;37.578;2023-08-21T04:06:41;99345.25;;;16.43;83.74
35489;BME280;21602;55.670;37.578;2023-08-21T04:09:06;99336.59;;;16.46;83.29
35489;BME280;21602;55.670;37.578;2023-08-21T04:11:34;99334.72;;;16.46;83.35
35489;BME280;21602;55.670;37.578;2023-08-21T04:14:01;99343.88;;;16.50;83.06
35489;BME280;21602;55.670;37.578;2023-08-21T04:16:27;99342.00;;;16.46;82.43
35489;BME280;21602;55.670;37.578;2023-08-21T04:18:54;99339.31;;;16.46;82.24
35489;BME280;21602;55.670;37.578;2023-08-21T04:21:19;99344.69;;;16.51;81.83
35489;BME280;21602;55.670;37.578;2023-08-21T04:23:45;99335.53;;;16.42;81.44
35489;BME280;21602;55.670;37.578;2023-08-21T04:26:11;99341.16;;;16.55;82.17
35489;BME280;21602;55.670;37.578;2023-08-21T04:28:37;99339.81;;;16.73;81.45
35489;BME280;21602;55.670;37.578;2023-08-21T04:31:07;99330.63;;;16.79;80.63
35489;BME280;21602;55.670;37.578;2023-08-21T04:33:34;99337.84;;;16.94;81.40
35489;BME280;21602;55.670;37.578;2023-08-21T04:36:01;99345.34;;;17.07;80.36
35489;BME280;21602;55.670;37.578;2023-08-21T04:38:27;99336.13;;;17.24;80.36
35489;BME280;21602;55.670;37.578;2023-08-21T04:40:54;99352.50;;;17.32;78.70
35489;BME280;21602;55.670;37.578;2023-08-21T04:43:20;99338.00;;;17.28;78.94
35489;BME280;21602;55.670;37.578;2023-08-21T04:45:52;99343.38;;;17.28;77.85
35489;BME280;21602;55.670;37.578;2023-08-21T04:48:23;99347.25;;;17.07;76.39
35489;BME280;21602;55.670;37.578;2023-08-21T04:50:49;99341.94;;;16.86;77.32
35489;BME280;21602;55.670;37.578;2023-08-21T04:53:15;99339.47;;;16.90;78.16
35489;BME280;21602;55.670;37.578;2023-08-21T04:55:41;99339.69;;;17.04;77.77
35489;BME280;21602;55.670;37.578;2023-08-21T04:58:09;99345.91;;;17.09;77.14
35489;BME280;21602;55.670;37.578;2023-08-21T05:00:35;99351.78;;;17.17;77.83
35489;BME280;21602;55.670;37.578;2023-08-21T05:03:01;99338.00;;;17.28;77.86
35489;BME280;21602;55.670;37.578;2023-08-21T05:05:28;99336.47;;;17.56;78.94
35489;BME280;21602;55.670;37.578;2023-08-21T05:07:54;99345.81;;;17.74;76.10
35489;BME280;21602;55.670;37.578;2023-08-21T05:10:20;99350.38;;;17.79;75.31
35489;BME280;21602;55.670;37.578;2023-08-21T05:12:46;99339.63;;;17.69;74.00
35489;BME280;21602;55.670;37.578;2023-08-21T05:15:12;99345.72;;;17.45;75.03
35489;BME280;21602;55.670;37.578;2023-08-21T05:17:38;99341.38;;;17.49;75.56
35489;BME280;21602;55.670;37.578;2023-08-21T05:20:04;99334.25;;;17.63;75.19
35489;BME280;21602;55.670;37.578;2023-08-21T05:22:34;99340.44;;;17.74;74.64
35489;BME280;21602;55.670;37.578;2023-08-21T05:25:00;99343.00;;;17.95;74.66
35489;BME280;21602;55.670;37.578;2023-08-21T05:27:27;99337.88;;;18.22;74.16
35489;BME280;21602;55.670;37.578;2023-08-21T05:29:53;99353.09;;;18.47;72.84
35489;BME280;21602;55.670;37.578;2023-08-21T05:32:19;99342.06;;;18.67;72.64
35489;BME280;21602;55.670;37.578;2023-08-21T05:34:45;99348.47;;;18.77;70.90
35489;BME280;21602;55.670;37.578;2023-08-21T05:37:11;99347.63;;;18.81;69.83
35489;BME280;21602;55.670;37.578;2023-08-21T05:39:38;99343.81;;;18.82;69.44
35489;BME280;21602;55.670;37.578;2023-08-21T05:42:09;99346.81;;;18.81;68.46
35489;BME280;21602;55.670;37.578;2023-08-21T05:44:35;99345.94;;;18.85;68.90
35489;BME280;21602;55.670;37.578;2023-08-21T05:47:01;99351.88;;;18.87;68.28
35489;BME280;21602;55.670;37.578;2023-08-21T05:49:27;99350.44;;;18.71;66.77
35489;BME280;21602;55.670;37.578;2023-08-21T05:51:53;99338.59;;;18.62;67.87
35489;BME280;21602;55.670;37.578;2023-08-21T05:54:19;99335.31;;;18.65;68.30
35489;BME280;21602;55.670;37.578;2023-08-21T05:56:49;99340.25;;;18.58;66.82
35489;BME280;21602;55.670;37.578;2023-08-21T05:59:26;99332.81;;;18.45;67.06
35489;BME280;21602;55.670;37.578;2023-08-21T06:01:54;99341.34;;;18.57;68.08
35489;BME280;21602;55.670;37.578;2023-08-21T06:04:21;99337.41;;;18.73;67.75
35489;BME280;21602;55.670;37.578;2023-08-21T06:06:55;99336.72;;;18.86;66.62
35489;BME280;21602;55.670;37.578;2023-08-21T06:09:21;99330.91;;;18.98;66.69
35489;BME280;21602;55.670;37.578;2023-08-21T06:11:50;99333.72;;;19.12;65.96
35489;BME280;21602;55.670;37.578;2023-08-21T06:14:19;99332.03;;;19.16;65.43
35489;BME280;21602;55.670;37.578;2023-08-21T06:16:45;99328.25;;;18.93;64.81
35489;BME280;21602;55.670;37.578;2023-08-21T06:19:15;99333.09;;;18.72;65.33
35489;BME280;21602;55.670;37.578;2023-08-21T06:21:41;99329.19;;;18.83;65.77
35489;BME280;21602;55.670;37.578;2023-08-21T06:24:06;99329.84;;;18.99;65.14
35489;BME280;21602;55.670;37.578;2023-08-21T06:26:32;99340.78;;;19.08;64.61
35489;BME280;21602;55.670;37.578;2023-08-21T06:29:00;99331.59;;;19.09;63.58
35489;BME280;21602;55.670;37.578;2023-08-21T06:31:26;99326.25;;;19.04;63.51
35489;BME280;21602;55.670;37.578;2023-08-21T06:33:54;99325.91;;;19.10;63.38
35489;BME280;21602;55.670;37.578;2023-08-21T06:36:26;99328.25;;;18.93;63.90
35489;BME280;21602;55.670;37.578;2023-08-21T06:38:58;99325.28;;;18.95;63.54
35489;BME280;21602;55.670;37.578;2023-08-21T06:41:23;99323.16;;;18.91;63.56
35489;BME280;21602;55.670;37.578;2023-08-21T06:43:53;99328.63;;;18.86;63.84
35489;BME280;21602;55.670;37.578;2023-08-21T06:46:21;99316.56;;;18.98;63.56
35489;BME280;21602;55.670;37.578;2023-08-21T06:48:50;99327.34;;;19.03;62.10
35489;BME280;21602;55.670;37.578;2023-08-21T06:51:16;99330.84;;;19.03;61.84
35489;BME280;21602;55.670;37.578;2023-08-21T06:53:42;99342.13;;;19.10;62.07
35489;BME280;21602;55.670;37.578;2023-08-21T06:56:24;99336.16;;;19.13;60.31
35489;BME280;21602;55.670;37.578;2023-08-21T06:58:59;99339.44;;;19.29;61.56
35489;BME280;21602;55.670;37.578;2023-08-21T07:01:25;99349.84;;;19.41;60.45
35489;BME280;21602;55.670;37.578;2023-08-21T07:04:01;99352.63;;;19.36;58.94
35489;BME280;21602;55.670;37.578;2023-08-21T07:06:36;99355.41;;;19.50;60.78
35489;BME280;21602;55.670;37.578;2023-08-21T07:09:04;99346.72;;;19.53;59.96
35489;BME280;21602;55.670;37.578;2023-08-21T07:11:30;99340.38;;;19.62;59.80
35489;BME280;21602;55.670;37.578;2023-08-21T07:13:57;99336.56;;;19.82;59.93
35489;BME280;21602;55.670;37.578;2023-08-21T07:16:23;99341.81;;;19.92;58.30
35489;BME280;21602;55.670;37.578;2023-08-21T07:18:49;99346.03;;;19.99;58.85
35489;BME280;21602;55.670;37.578;2023-08-21T07:21:14;99347.94;;;19.98;58.80
35489;BME280;21602;55.670;37.578;2023-08-21T07:23:41;99352.31;;;20.13;59.06
35489;BME280;21602;55.670;37.578;2023-08-21T07:26:16;99351.16;;;20.19;58.00
35489;BME280;21602;55.670;37.578;2023-08-21T07:28:49;99349.91;;;20.11;57.62
35489;BME280;21602;55.670;37.578;2023-08-21T07:31:14;99346.97;;;20.08;57.82
35489;BME280;21602;55.670;37.578;2023-08-21T07:33:41;99348.13;;;20.20;58.99
35489;BME280;21602;55.670;37.578;2023-08-21T07:36:13;99352.06;;;20.28;57.44
35489;BME280;21602;55.670;37.578;2023-08-21T07:38:49;99344.72;;;20.48;57.88
35489;BME280;21602;55.670;37.578;2023-08-21T07:41:19;99341.38;;;20.51;57.17
35489;BME280;21602;55.670;37.578;2023-08-21T07:43:45;99340.13;;;20.62;57.14
35489;BME280;21602;55.670;37.578;2023-08-21T07:46:14;99355.59;;;20.75;57.30
35489;BME280;21602;55.670;37.578;2023-08-21T07:48:45;99349.56;;;20.78;56.88
35489;BME280;21602;55.670;37.578;2023-08-21T07:51:11;99349.44;;;20.83;56.51
35489;BME280;21602;55.670;37.578;2023-08-21T07:53:40;99353.56;;;20.67;56.05
35489;BME280;21602;55.670;37.578;2023-08-21T07:56:06;99353.94;;;20.46;56.40
35489;BME280;21602;55.670;37.578;2023-08-21T07:58:35;99349.06;;;20.30;56.24
35489;BME280;21602;55.670;37.578;2023-08-21T08:01:01;99330.56;;;20.18;56.77
35489;BME280;21602;55.670;37.578;2023-08-21T08:03:28;99330.72;;;20.08;56.16
35489;BME280;21602;55.670;37.578;2023-08-21T08:05:54;99332.47;;;19.99;57.16
35489;BME280;21602;55.670;37.578;2023-08-21T08:08:23;99338.13;;;20.02;56.89
35489;BME280;21602;55.670;37.578;2023-08-21T08:10:52;99340.97;;;20.11;56.34
35489;BME280;21602;55.670;37.578;2023-08-21T08:13:28;99337.81;;;20.23;56.38
35489;BME280;21602;55.670;37.578;2023-08-21T08:15:54;99331.50;;;20.41;55.44
35489;BME280;21602;55.670;37.578;2023-08-21T08:18:20;99329.94;;;20.54;55.00
35489;BME280;21602;55.670;37.578;2023-08-21T08:20:50;99329.88;;;20.73;54.62
35489;BME280;21602;55.670;37.578;2023-08-21T08:23:17;99327.47;;;20.71;54.59
35489;BME280;21602;55.670;37.578;2023-08-21T08:25:50;99321.66;;;20.45;54.78
35489;BME280;21602;55.670;37.578;2023-08-21T08:28:16;99332.69;;;20.35;55.20
35489;BME280;21602;55.670;37.578;2023-08-21T08:30:45;99328.06;;;20.35;55.32
35489;BME280;21602;55.670;37.578;2023-08-21T08:33:12;99324.09;;;20.46;54.65
35489;BME280;21602;55.670;37.578;2023-08-21T08:35:38;99317.63;;;20.61;54.22
35489;BME280;21602;55.670;37.578;2023-08-21T08:38:09;99315.09;;;20.79;54.18
35489;BME280;21602;55.670;37.578;2023-08-21T08:40:38;99317.63;;;20.89;53.45
35489;BME280;21602;55.670;37.578;2023-08-21T08:43:07;99318.31;;;20.94;53.46
35489;BME280;21602;55.670;37.578;2023-08-21T08:45:36;99322.13;;;20.93;53.26
35489;BME280;21602;55.670;37.578;2023-08-21T08:48:04;99320.34;;;20.89;53.41
35489;BME280;21602;55.670;37.578;2023-08-21T08:50:43;99317.31;;;20.90;53.65
35489;BME280;21602;55.670;37.578;2023-08-21T08:53:21;99323.53;;;20.91;53.80
35489;BME280;21602;55.670;37.578;2023-08-21T08:55:50;99314.91;;;20.89;52.95
35489;BME280;21602;55.670;37.578;2023-08-21T08:58:18;99312.19;;;20.89;52.78
35489;BME280;21602;55.670;37.578;2023-08-21T09:00:44;99309.16;;;20.90;52.59
35489;BME280;21602;55.670;37.578;2023-08-21T09:03:10;99297.81;;;20.88;52.90
35489;BME280;21602;55.670;37.578;2023-08-21T09:05:40;99301.94;;;20.86;52.18
35489;BME280;21602;55.670;37.578;2023-08-21T09:08:15;99295.50;;;20.82;51.93
35489;BME280;21602;55.670;37.578;2023-08-21T09:10:46;99300.13;;;20.81;52.22
35489;BME280;21602;55.670;37.578;2023-08-21T09:13:13;99292.47;;;20.83;52.57
35489;BME280;21602;55.670;37.578;2023-08-21T09:15:47;99304.75;;;20.67;52.00
35489;BME280;21602;55.670;37.578;2023-08-21T09:18:17;99296.09;;;20.65;52.07
35489;BME280;21602;55.670;37.578;2023-08-21T09:20:46;99303.31;;;20.69;52.62
35489;BME280;21602;55.670;37.578;2023-08-21T09:23:21;99293.22;;;20.75;51.98
35489;BME280;21602;55.670;37.578;2023-08-21T09:25:49;99295.28;;;20.92;52.57
35489;BME280;21602;55.670;37.578;2023-08-21T09:28:20;99296.50;;;21.00;50.85
35489;BME280;21602;55.670;37.578;2023-08-21T09:30:51;99294.00;;;21.03;51.82
35489;BME280;21602;55.670;37.578;2023-08-21T09:33:22;99292.06;;;21.17;51.04
35489;BME280;21602;55.670;37.578;2023-08-21T09:35:51;99294.47;;;21.33;50.85
35489;BME280;21602;55.670;37.578;2023-08-21T09:38:18;99280.09;;;21.55;51.32
35489;BME280;21602;55.670;37.578;2023-08-21T09:40:52;99296.84;;;21.70;49.84
35489;BME280;21602;55.670;37.578;2023-08-21T09:43:20;99289.22;;;21.59;50.13
35489;BME280;21602;55.670;37.578;2023-08-21T09:45:49;99274.06;;;21.58;49.79
35489;BME280;21602;55.670;37.578;2023-08-21T09:48:16;99278.81;;;21.52;49.58
35489;BME280;21602;55.670;37.578;2023-08-21T09:50:43;99280.34;;;21.44;50.23
35489;BME280;21602;55.670;37.578;2023-08-21T09:53:14;99282.53;;;21.56;49.97
35489;BME280;21602;55.670;37.578;2023-08-21T09:56:00;99282.75;;;21.68;49.58
35489;BME280;21602;55.670;37.578;2023-08-21T09:58:29;99278.13;;;21.91;49.69
35489;BME280;21602;55.670;37.578;2023-08-21T10:00:58;99266.75;;;22.12;48.79
35489;BME280;21602;55.670;37.578;2023-08-21T10:03:26;99282.31;;;21.97;48.35
35489;BME280;21602;55.670;37.578;2023-08-21T10:05:57;99271.50;;;21.84;48.79
35489;BME280;21602;55.670;37.578;2023-08-21T10:08:29;99272.56;;;21.74;49.12
35489;BME280;21602;55.670;37.578;2023-08-21T10:10:55;99268.13;;;21.78;49.02
35489;BME280;21602;55.670;37.578;2023-08-21T10:13:23;99272.22;;;21.89;48.76
35489;BME280;21602;55.670;37.578;2023-08-21T10:15:49;99261.56;;;22.02;49.09
35489;BME280;21602;55.670;37.578;2023-08-21T10:18:31;99265.75;;;22.08;47.61
35489;BME280;21602;55.670;37.578;2023-08-21T10:21:13;99262.19;;;21.98;47.10
35489;BME280;21602;55.670;37.578;2023-08-21T10:23:41;99256.44;;;22.00;47.75
35489;BME280;21602;55.670;37.578;2023-08-21T10:26:09;99264.03;;;22.12;47.99
35489;BME280;21602;55.670;37.578;2023-08-21T10:28:54;99255.97;;;22.29;47.30
35489;BME280;21602;55.670;37.578;2023-08-21T10:31:28;99256.50;;;22.40;48.06
35489;BME280;21602;55.670;37.578;2023-08-21T10:33:55;99254.09;;;22.38;47.76
35489;BME280;21602;55.670;37.578;2023-08-21T10:39:22;99249.91;;;22.32;47.90
35489;BME280;21602;55.670;37.578;2023-08-21T10:41:55;99247.16;;;22.23;47.79
35489;BME280;21602;55.670;37.578;2023-08-21T10:47:16;99246.22;;;22.28;47.85
35489;BME280;21602;55.670;37.578;2023-08-21T10:49:47;99242.50;;;22.24;47.72
35489;BME280;21602;55.670;37.578;2023-08-21T10:52:15;99243.38;;;22.11;47.54
35489;BME280;21602;55.670;37.578;2023-08-21T10:54:51;99233.25;;;22.03;47.89
35489;BME280;21602;55.670;37.578;2023-08-21T10:57:21;99248.47;;;22.04;47.38
35489;BME280;21602;55.670;37.578;2023-08-21T11:00:00;99246.22;;;22.06;47.49
35489;BME280;21602;55.670;37.578;2023-08-21T11:02:32;99241.41;;;22.03;46.63
35489;BME280;21602;55.670;37.578;2023-08-21T11:05:01;99235.50;;;22.01;46.33
35489;BME280;21602;55.670;37.578;2023-08-21T11:07:47;99227.38;;;22.09;46.24
35489;BME280;21602;55.670;37.578;2023-08-21T11:10:19;99225.47;;;22.10;46.11
35489;BME280;21602;55.670;37.578;2023-08-21T11:12:55;99218.81;;;22.16;46.36
35489;BME280;21602;55.670;37.578;2023-08-21T11:15:26;99217.69;;;22.17;45.98
35489;BME280;21602;55.670;37.578;2023-08-21T11:18:00;99221.56;;;22.24;45.75
35489;BME280;21602;55.670;37.578;2023-08-21T11:20:28;99221.09;;;22.31;46.04
35489;BME280;21602;55.670;37.578;2023-08-21T11:23:01;99217.59;;;22.31;46.43
35489;BME280;21602;55.670;37.578;2023-08-21T11:25:32;99210.91;;;22.37;46.12
35489;BME280;21602;55.670;37.578;2023-08-21T11:27:59;99214.28;;;22.42;45.38
35489;BME280;21602;55.670;37.578;2023-08-21T11:30:27;99208.34;;;22.40;45.06
35489;BME280;21602;55.670;37.578;2023-08-21T11:33:11;99208.69;;;22.47;44.79
35489;BME280;21602;55.670;37.578;2023-08-21T11:35:38;99208.69;;;22.47;44.88
35489;BME280;21602;55.670;37.578;2023-08-21T11:38:04;99205.03;;;22.52;45.90
35489;BME280;21602;55.670;37.578;2023-08-21T11:40:30;99206.16;;;22.60;46.08
35489;BME280;21602;55.670;37.578;2023-08-21T11:43:01;99205.53;;;22.63;46.30
35489;BME280;21602;55.670;37.578;2023-08-21T11:45:27;99203.13;;;22.61;45.69
35489;BME280;21602;55.670;37.578;2023-08-21T11:47:55;99203.59;;;22.63;45.99
35489;BME280;21602;55.670;37.578;2023-08-21T11:50:22;99205.53;;;22.63;45.41
35489;BME280;21602;55.670;37.578;2023-08-21T11:52:51;99199.94;;;22.68;45.10
35489;BME280;21602;55.670;37.578;2023-08-21T11:55:17;99207.31;;;22.76;45.49
35489;BME280;21602;55.670;37.578;2023-08-21T11:57:49;99202.19;;;22.83;44.61
35489;BME280;21602;55.670;37.578;2023-08-21T12:00:16;99202.75;;;22.94;44.19
35489;BME280;21602;55.670;37.578;2023-08-21T12:02:58;99203.69;;;23.07;44.07
35489;BME280;21602;55.670;37.578;2023-08-21T12:05:26;99195.53;;;23.07;43.78
35489;BME280;21602;55.670;37.578;2023-08-21T12:07:52;99206.72;;;22.96;43.10
35489;BME280;21602;55.670;37.578;2023-08-21T12:10:25;99196.31;;;22.90;44.69
35489;BME280;21602;55.670;37.578;2023-08-21T12:12:51;99194.19;;;22.78;44.18
35489;BME280;21602;55.670;37.578;2023-08-21T12:15:17;99199.00;;;22.81;43.91
35489;BME280;21602;55.670;37.578;2023-08-21T12:17:43;99197.56;;;22.75;43.94
35489;BME280;21602;55.670;37.578;2023-08-21T12:20:09;99186.03;;;22.69;43.52
35489;BME280;21602;55.670;37.578;2023-08-21T12:22:38;99186.31;;;22.68;43.44
35489;BME280;21602;55.670;37.578;2023-08-21T12:25:05;99190.66;;;22.69;43.36
35489;BME280;21602;55.670;37.578;2023-08-21T12:27:31;99187.66;;;22.79;44.23
35489;BME280;21602;55.670;37.578;2023-08-21T12:29:57;99183.69;;;22.94;44.59
35489;BME280;21602;55.670;37.578;2023-08-21T12:32:23;99176.47;;;22.89;43.42
35489;BME280;21602;55.670;37.578;2023-08-21T12:34:49;99176.63;;;22.93;43.92
35489;BME280;21602;55.670;37.578;2023-08-21T12:37:14;99181.44;;;22.96;44.42
35489;BME280;21602;55.670;37.578;2023-08-21T12:39:40;99173.91;;;23.02;43.94
35489;BME280;21602;55.670;37.578;2023-08-21T12:42:06;99173.91;;;23.02;43.63
35489;BME280;21602;55.670;37.578;2023-08-21T12:44:35;99181.53;;;22.82;42.96
35489;BME280;21602;55.670;37.578;2023-08-21T12:47:02;99174.94;;;22.57;43.82
35489;BME280;21602;55.670;37.578;2023-08-21T12:49:28;99170.47;;;22.53;44.56
35489;BME280;21602;55.670;37.578;2023-08-21T12:51:54;99170.63;;;22.56;44.57
35489;BME280;21602;55.670;37.578;2023-08-21T12:54:21;99169.53;;;22.66;44.01
35489;BME280;21602;55.670;37.578;2023-08-21T12:56:47;99155.13;;;22.74;44.05
35489;BME280;21602;55.670;37.578;2023-08-21T12:59:13;99158.50;;;22.80;44.19
35489;BME280;21602;55.670;37.578;2023-08-21T13:01:39;99151.63;;;22.65;44.39
35489;BME280;21602;55.670;37.578;2023-08-21T13:04:06;99146.47;;;22.72;44.05